Map

Track Data

SID SEASON NUMBER BASIN SUBBASIN NAME ISO_TIME NATURE LAT LON WMO_WIND WMO_PRES WMO_AGENCY TRACK_TYPE DIST2LAND LANDFALL IFLAG USA_AGENCY USA_ATCF_ID USA_LAT USA_LON USA_RECORD USA_STATUS USA_WIND USA_PRES USA_SSHS USA_R34_NE USA_R34_SE USA_R34_SW USA_R34_NW USA_R50_NE USA_R50_SE USA_R50_SW USA_R50_NW USA_R64_NE USA_R64_SE USA_R64_SW USA_R64_NW USA_POCI USA_ROCI USA_RMW USA_EYE TOKYO_LAT TOKYO_LON TOKYO_GRADE TOKYO_WIND TOKYO_PRES TOKYO_R50_DIR TOKYO_R50_LONG TOKYO_R50_SHORT TOKYO_R30_DIR TOKYO_R30_LONG TOKYO_R30_SHORT TOKYO_LAND CMA_LAT CMA_LON CMA_CAT CMA_WIND CMA_PRES HKO_LAT HKO_LON HKO_CAT HKO_WIND HKO_PRES NEWDELHI_LAT NEWDELHI_LON NEWDELHI_GRADE NEWDELHI_WIND NEWDELHI_PRES NEWDELHI_CI NEWDELHI_DP NEWDELHI_POCI REUNION_LAT REUNION_LON REUNION_TYPE REUNION_WIND REUNION_PRES REUNION_TNUM REUNION_CI REUNION_RMW REUNION_R34_NE REUNION_R34_SE REUNION_R34_SW REUNION_R34_NW REUNION_R50_NE REUNION_R50_SE REUNION_R50_SW REUNION_R50_NW REUNION_R64_NE REUNION_R64_SE REUNION_R64_SW REUNION_R64_NW BOM_LAT BOM_LON BOM_TYPE BOM_WIND BOM_PRES BOM_TNUM BOM_CI BOM_RMW BOM_R34_NE BOM_R34_SE BOM_R34_SW BOM_R34_NW BOM_R50_NE BOM_R50_SE BOM_R50_SW BOM_R50_NW BOM_R64_NE BOM_R64_SE BOM_R64_SW BOM_R64_NW BOM_ROCI BOM_POCI BOM_EYE BOM_POS_METHOD BOM_PRES_METHOD NADI_LAT NADI_LON NADI_CAT NADI_WIND NADI_PRES WELLINGTON_LAT WELLINGTON_LON WELLINGTON_WIND WELLINGTON_PRES DS824_LAT DS824_LON DS824_STAGE DS824_WIND DS824_PRES TD9636_LAT TD9636_LON TD9636_STAGE TD9636_WIND TD9636_PRES TD9635_LAT TD9635_LON TD9635_WIND TD9635_PRES TD9635_ROCI NEUMANN_LAT NEUMANN_LON NEUMANN_CLASS NEUMANN_WIND NEUMANN_PRES MLC_LAT MLC_LON MLC_CLASS MLC_WIND MLC_PRES USA_GUST BOM_GUST BOM_GUST_PER REUNION_GUST REUNION_GUST_PER USA_SEAHGT USA_SEARAD_NE USA_SEARAD_SE USA_SEARAD_SW USA_SEARAD_NW STORM_SPEED STORM_DIR
2000201N11224 2000 47 EP MM UPANA 2000-07-19 00:00:00 TS 11.0000 -136.000 main 2228 2127 O_____________ jtwc_cp CP012000 11.0000 -136.000 TD 25 -1 22 265
2000201N11224 2000 47 EP MM UPANA 2000-07-19 03:00:00 TS 10.8955 -137.118 main 2127 2028 P_____________ CP012000 10.8955 -137.118 TD 25 -1 23 265
2000201N11224 2000 47 EP MM UPANA 2000-07-19 06:00:00 TS 10.8000 -138.300 main 2019 1913 O_____________ jtwc_cp CP012000 10.8000 -138.300 TD 25 -1 24 266
2000201N11224 2000 47 EP MM UPANA 2000-07-19 09:00:00 TS 10.7276 -139.573 main 1904 1804 P_____________ CP012000 10.7276 -139.573 TD 25 -1 25 268
2000201N11224 2000 47 EP CP UPANA 2000-07-19 12:00:00 TS 10.7000 -140.800 main 1795 1707 O_____________ jtwc_cp CP012000 10.7000 -140.800 TD 25 -1 22 270
2000201N11224 2000 47 EP CP UPANA 2000-07-19 15:00:00 TS 10.7419 -141.852 main 1698 1622 P_____________ CP012000 10.7419 -141.852 TD 25 -1 20 273
2000201N11224 2000 47 EP CP UPANA 2000-07-19 18:00:00 TS 10.8000 -142.800 main 1613 1537 O_____________ jtwc_cp CP012000 10.8000 -142.800 TD 25 -1 18 272
2000201N11224 2000 47 EP CP UPANA 2000-07-19 21:00:00 TS 10.8147 -143.730 main 1537 1464 P_____________ CP012000 10.8147 -143.730 TD 27 -1 18 270
2000201N11224 2000 47 EP CP UPANA 2000-07-20 00:00:00 TS 10.8000 -144.600 30 hurdat_epa main 1464 1401 O_____________ hurdat_epa CP012000 10.8000 -144.600 TD 30 -1 17 268
2000201N11224 2000 47 EP CP UPANA 2000-07-20 03:00:00 TS 10.7501 -145.412 main 1401 1348 P_____________ CP012000 10.7572 -145.423 TD 30 -1 16 266
2000201N11224 2000 47 EP CP UPANA 2000-07-20 06:00:00 TS 10.7000 -146.200 30 hurdat_epa main 1348 1297 O_____________ hurdat_epa CP012000 10.7000 -146.200 TD 30 -1 15 267
2000201N11224 2000 47 EP CP UPANA 2000-07-20 09:00:00 TS 10.6630 -146.969 main 1289 1249 P_____________ CP012000 10.6649 -146.972 TD 30 -1 15 266
2000201N11224 2000 47 EP CP UPANA 2000-07-20 12:00:00 TS 10.6000 -147.700 30 hurdat_epa main 1249 1213 O_____________ hurdat_epa CP012000 10.6000 -147.700 TD 30 -1 14 262
2000201N11224 2000 47 EP CP UPANA 2000-07-20 15:00:00 TS 10.4642 -148.394 main 1213 1192 P_____________ CP012000 10.4498 -148.365 TD 32 -1 14 258
2000201N11224 2000 47 EP CP UPANA 2000-07-20 18:00:00 TS 10.3250 -149.050 35 hurdat_epa main 1190 1162 O_____________ hurdat_epa CP012000 10.3000 -149.000 TS 35 0 13 260
2000201N11224 2000 47 EP CP UPANA 2000-07-20 21:00:00 TS 10.2418 -149.694 main 1167 1133 P_____________ CP012000 10.2275 -149.665 TS 35 0 12 264
2000201N11224 2000 47 EP CP UPANA 2000-07-21 00:00:00 TS 10.2000 -150.300 35 hurdat_epa main 1133 1107 O_____________ hurdat_epa CP012000 10.2000 -150.300 TS 35 0 11 267
2000201N11224 2000 47 EP CP UPANA 2000-07-21 03:00:00 TS 10.1867 -150.854 main 1102 1078 P_____________ CP012000 10.1923 -150.857 TS 37 0 11 270
2000201N11224 2000 47 EP CP UPANA 2000-07-21 06:00:00 TS 10.2000 -151.400 40 hurdat_epa main 1078 1052 O_____________ hurdat_epa CP012000 10.2000 -151.400 TS 40 0 11 272
2000201N11224 2000 47 EP CP UPANA 2000-07-21 09:00:00 TS 10.2305 -151.985 main 1052 1018 P_____________ CP012000 10.2074 -151.985 TS 40 0 12 272
2000201N11224 2000 47 EP CP UPANA 2000-07-21 12:00:00 TS 10.2500 -152.600 40 hurdat_epa main 1018 1010 O_____________ hurdat_epa CP012000 10.2000 -152.600 TS 40 0 12 269
2000201N11224 2000 47 EP CP UPANA 2000-07-21 15:00:00 TS 10.2143 -153.241 main 1010 992 P_____________ CP012000 10.1424 -153.235 TS 40 0 13 267
2000201N11224 2000 47 EP CP UPANA 2000-07-21 18:00:00 TS 10.1750 -153.900 40 hurdat_epa main 992 982 O_____________ hurdat_epa CP012000 10.1000 -153.900 TS 40 0 13 268
2000201N11224 2000 47 EP CP UPANA 2000-07-21 21:00:00 TS 10.1761 -154.553 main 981 975 P_____________ CP012000 10.1349 -154.585 TS 40 0 13 271
2000201N11224 2000 47 EP CP UPANA 2000-07-22 00:00:00 TS 10.2000 -155.225 40 hurdat_epa main 975 973 O_____________ hurdat_epa CP012000 10.2000 -155.300 TS 40 0 13 272
2000201N11224 2000 47 EP CP UPANA 2000-07-22 03:00:00 TS 10.2335 -155.915 main 974 964 P_____________ CP012000 10.2497 -156.020 TS 37 0 14 273
2000201N11224 2000 47 EP CP UPANA 2000-07-22 06:00:00 TS 10.2750 -156.650 35 hurdat_epa main 967 967 O_____________ hurdat_epa CP012000 10.3000 -156.800 TS 35 0 14 272
2000201N11224 2000 47 EP CP UPANA 2000-07-22 09:00:00 TS 10.2930 -157.384 main 979 979 P_____________ CP012000 10.3349 -157.670 TS 35 0 16 273
2000201N11224 2000 47 EP CP UPANA 2000-07-22 12:00:00 TS 10.3500 -158.275 35 hurdat_epa main 991 991 O_____________ hurdat_epa CP012000 10.4000 -158.600 TS 35 0 21 276
2000201N11224 2000 47 EP CP UPANA 2000-07-22 15:00:00 TS 10.5005 -159.495 main 1025 1025 P_____________ CP012000 10.5422 -159.535 TS 30 -1 25 278
2000201N11224 2000 47 EP CP UPANA 2000-07-22 18:00:00 TS 10.6750 -160.750 25 hurdat_epa main 1063 1069 O_____________ hurdat_epa CP012000 10.7000 -160.500 TD 25 -1 22 278
2000201N11224 2000 47 EP CP UPANA 2000-07-22 21:00:00 TS 10.8179 -161.718 main 1112 1112 P_____________ CP012000 10.8223 -161.500 TD 25 -1 18 278
2000201N11224 2000 47 EP CP UPANA 2000-07-23 00:00:00 TS 10.9250 -162.600 25 hurdat_epa main 1162 1162 O_____________ hurdat_epa CP012000 10.9000 -162.500 TD 25 -1 18 275
2000201N11224 2000 47 EP CP UPANA 2000-07-23 03:00:00 TS 10.9830 -163.561 main 1225 1225 P_____________ CP012000 10.9223 -163.473 TD 25 -1 19 272
2000201N11224 2000 47 EP CP UPANA 2000-07-23 06:00:00 TS 11.0000 -164.500 25 hurdat_epa main 1293 1293 O_____________ hurdat_epa CP012000 10.9000 -164.400 TD 25 -1 18 271
2000201N11224 2000 47 EP CP UPANA 2000-07-23 09:00:00 TS 11.0023 -165.386 main 1364 1364 P_____________ CP012000 10.8648 -165.280 TD 27 -1 17 269
2000201N11224 2000 47 EP CP UPANA 2000-07-23 12:00:00 TS 10.9750 -166.200 30 hurdat_epa main 1406 1406 O_____________ hurdat_epa CP012000 10.8000 -166.100 TD 30 -1 15 269
2000201N11224 2000 47 EP CP UPANA 2000-07-23 15:00:00 TS 10.9815 -166.923 main 1444 1444 P_____________ CP012000 10.7297 -166.857 TD 30 -1 14 265
2000201N11224 2000 47 EP CP UPANA 2000-07-23 18:00:00 TS 10.8500 -167.625 30 hurdat_epa main 1494 1494 O_____________ hurdat_epa CP012000 10.6000 -167.600 TD 30 -1 16 248
2000201N11224 2000 47 EP CP UPANA 2000-07-23 21:00:00 TS 10.3975 -168.408 main 1589 1589 P_____________ CP012000 10.3800 -168.415 TD 30 -1 18 238
2000201N11224 2000 47 EP CP UPANA 2000-07-24 00:00:00 TS 9.90000 -169.175 30 hurdat_epa main 1685 1685 O_____________ hurdat_epa CP012000 10.1000 -169.200 TD 30 -1 16 241
2000201N11224 2000 47 EP CP UPANA 2000-07-24 03:00:00 TS 9.61453 -169.863 main 1757 1757 P_____________ CP012000 9.80260 -169.883 TD 25 -1 14 252
2000201N11224 2000 47 EP CP UPANA 2000-07-24 06:00:00 TS 9.47500 -170.500 20 hurdat_epa main 1806 O_____________ hurdat_epa CP012000 9.50000 -170.500 TD 20 -1 13 257

About IBTrACS Database

This database is a web-friendly format of International Best Track Archive for Climate Stewardship (IBTrACS), a global best track data archive curated by NOAA dating back to 1842.

Updated: 2021-11-26